WZZ764 LICC-EPKT
Flight info
| Callsign | WZZ764 |
|---|---|
| Flight time | 2h 3m |
| Altitude | 36000 |
| Route | BUDIN DCT SOBRI DCT EVINO DCT KUTID DCT BUMOK/N0449F350 DCT VEBAL DCT VALPI DCT BAVOK |
| Aircraft | A321/M-SDE3FGHIRWY/LB1 |
Departure
| Time | 2026-04-29 12:15 |
|---|---|
| Airport | Catania-Fontanarossa Airport (LICC) |
Arrival
| Time | 2026-04-29 14:18 |
|---|---|
| Airport | Katowice Wojciech Korfanty International Airport (EPKT) |
| Time | Latitude | Longitude | Altitude | Speed | Heading |
|---|---|---|---|---|---|
| 2026-04-29 11:57 | 37.46902 | 15.06217 | 51 ft | 0 kts | 354° |
| 2026-04-29 12:06 | 37.46899 | 15.06217 | 51 ft | 3 kts | 354° |
| 2026-04-29 12:06 | 37.46873 | 15.06221 | 51 ft | 4 kts | 354° |
| 2026-04-29 12:07 | 37.46847 | 15.06224 | 48 ft | 3 kts | 353° |
| 2026-04-29 12:07 | 37.46824 | 15.06233 | 51 ft | 4 kts | 311° |
| 2026-04-29 12:07 | 37.46814 | 15.06261 | 51 ft | 4 kts | 273° |
| 2026-04-29 12:07 | 37.46815 | 15.06295 | 49 ft | 4 kts | 262° |
| 2026-04-29 12:08 | 37.46817 | 15.06311 | 49 ft | 0 kts | 264° |
| 2026-04-29 12:11 | 37.46815 | 15.06294 | 49 ft | 4 kts | 263° |
| 2026-04-29 12:11 | 37.46811 | 15.06250 | 51 ft | 7 kts | 263° |
| 2026-04-29 12:11 | 37.46805 | 15.06180 | 51 ft | 9 kts | 263° |
| 2026-04-29 12:11 | 37.46797 | 15.06087 | 51 ft | 12 kts | 264° |
| 2026-04-29 12:12 | 37.46787 | 15.05972 | 51 ft | 14 kts | 264° |
| 2026-04-29 12:12 | 37.46776 | 15.05835 | 51 ft | 17 kts | 263° |
| 2026-04-29 12:12 | 37.46763 | 15.05679 | 51 ft | 19 kts | 263° |
| 2026-04-29 12:12 | 37.46748 | 15.05510 | 51 ft | 19 kts | 265° |
| 2026-04-29 12:13 | 37.46731 | 15.05340 | 51 ft | 20 kts | 257° |
| 2026-04-29 12:13 | 37.46652 | 15.05234 | 51 ft | 16 kts | 223° |
| 2026-04-29 12:13 | 37.46566 | 15.05213 | 51 ft | 14 kts | 125° |
| 2026-04-29 12:13 | 37.46567 | 15.05314 | 51 ft | 4 kts | 83° |
| 2026-04-29 12:14 | 37.46567 | 15.05315 | 51 ft | 0 kts | 84° |
| 2026-04-29 12:14 | 37.46576 | 15.05426 | 50 ft | 42 kts | 84° |
| 2026-04-29 12:14 | 37.46632 | 15.06096 | 51 ft | 109 kts | 84° |
| 2026-04-29 12:14 | 37.46732 | 15.07277 | 90 ft | 157 kts | 84° |
| 2026-04-29 12:15 | 37.46843 | 15.08605 | 815 ft | 149 kts | 81° |
| 2026-04-29 12:15 | 37.47012 | 15.09912 | 1450 ft | 152 kts | 82° |
| 2026-04-29 12:15 | 37.47195 | 15.11226 | 2048 ft | 153 kts | 82° |
| 2026-04-29 12:15 | 37.47377 | 15.12545 | 2529 ft | 156 kts | 83° |
| 2026-04-29 12:16 | 37.47560 | 15.13900 | 3041 ft | 158 kts | 83° |
| 2026-04-29 12:16 | 37.47752 | 15.15321 | 3347 ft | 175 kts | 83° |
| 2026-04-29 12:16 | 37.47974 | 15.16930 | 3528 ft | 199 kts | 82° |
| 2026-04-29 12:16 | 37.48223 | 15.18727 | 3778 ft | 218 kts | 82° |
| 2026-04-29 12:17 | 37.48491 | 15.20710 | 3918 ft | 242 kts | 82° |
| 2026-04-29 12:17 | 37.48794 | 15.22907 | 4203 ft | 265 kts | 81° |
| 2026-04-29 12:17 | 37.49113 | 15.25189 | 4867 ft | 271 kts | 81° |
| 2026-04-29 12:17 | 37.49442 | 15.27542 | 5606 ft | 275 kts | 81° |
| 2026-04-29 12:18 | 37.49843 | 15.29911 | 6368 ft | 279 kts | 70° |
| 2026-04-29 12:18 | 37.50870 | 15.31982 | 7057 ft | 283 kts | 48° |
| 2026-04-29 12:18 | 37.52188 | 15.33847 | 7758 ft | 287 kts | 47° |
| 2026-04-29 12:18 | 37.53527 | 15.35726 | 8469 ft | 290 kts | 47° |
| 2026-04-29 12:19 | 37.54998 | 15.37476 | 9212 ft | 292 kts | 34° |
| 2026-04-29 12:19 | 37.56773 | 15.38715 | 9941 ft | 293 kts | 19° |
| 2026-04-29 12:19 | 37.58667 | 15.39649 | 10439 ft | 305 kts | 19° |
| 2026-04-29 12:19 | 37.60710 | 15.40664 | 10600 ft | 328 kts | 19° |
| 2026-04-29 12:20 | 37.62904 | 15.41764 | 10726 ft | 350 kts | 20° |
| 2026-04-29 12:20 | 37.65222 | 15.42933 | 11028 ft | 365 kts | 20° |
| 2026-04-29 12:20 | 37.67593 | 15.44136 | 11619 ft | 370 kts | 20° |
| 2026-04-29 12:20 | 37.70029 | 15.45191 | 12263 ft | 371 kts | 11° |
| 2026-04-29 12:21 | 37.72586 | 15.45653 | 12913 ft | 372 kts | 359° |
| 2026-04-29 12:21 | 37.75163 | 15.45465 | 13585 ft | 372 kts | 348° |
| 2026-04-29 12:21 | 37.77673 | 15.44861 | 14210 ft | 374 kts | 346° |
| 2026-04-29 12:21 | 37.80241 | 15.44236 | 14803 ft | 377 kts | 346° |
| 2026-04-29 12:22 | 37.82829 | 15.43616 | 15382 ft | 381 kts | 347° |
| 2026-04-29 12:22 | 37.85447 | 15.42992 | 15977 ft | 384 kts | 347° |
| 2026-04-29 12:22 | 37.88090 | 15.42364 | 16564 ft | 388 kts | 347° |
| 2026-04-29 12:22 | 37.90752 | 15.41733 | 17173 ft | 391 kts | 347° |
| 2026-04-29 12:23 | 37.93439 | 15.41093 | 17765 ft | 395 kts | 347° |
| 2026-04-29 12:23 | 37.96148 | 15.40442 | 18346 ft | 398 kts | 347° |
| 2026-04-29 12:23 | 37.98884 | 15.39783 | 18853 ft | 402 kts | 347° |
| 2026-04-29 12:23 | 38.01604 | 15.39127 | 19366 ft | 405 kts | 346° |
| 2026-04-29 12:24 | 38.04385 | 15.38455 | 19878 ft | 408 kts | 346° |
| 2026-04-29 12:24 | 38.07190 | 15.37778 | 20391 ft | 412 kts | 346° |
| 2026-04-29 12:24 | 38.10012 | 15.37099 | 20868 ft | 415 kts | 346° |
| 2026-04-29 12:24 | 38.12862 | 15.36412 | 21366 ft | 418 kts | 346° |
| 2026-04-29 12:25 | 38.15725 | 15.35720 | 21827 ft | 421 kts | 346° |
| 2026-04-29 12:25 | 38.18615 | 15.35017 | 22300 ft | 424 kts | 346° |
| 2026-04-29 12:25 | 38.24407 | 15.33608 | 23231 ft | 430 kts | 346° |
| 2026-04-29 12:26 | 38.27355 | 15.32892 | 23671 ft | 433 kts | 346° |
| 2026-04-29 12:26 | 38.30321 | 15.32174 | 24041 ft | 435 kts | 346° |
| 2026-04-29 12:26 | 38.33305 | 15.31452 | 24428 ft | 437 kts | 346° |
| 2026-04-29 12:26 | 38.36304 | 15.30725 | 24842 ft | 439 kts | 346° |
| 2026-04-29 12:27 | 38.39311 | 15.29996 | 25235 ft | 441 kts | 346° |
| 2026-04-29 12:27 | 38.42292 | 15.29271 | 25610 ft | 443 kts | 346° |
| 2026-04-29 12:27 | 38.45322 | 15.28533 | 25982 ft | 445 kts | 346° |
| 2026-04-29 12:27 | 38.48376 | 15.27787 | 26333 ft | 447 kts | 346° |
| 2026-04-29 12:28 | 38.51439 | 15.27039 | 26683 ft | 450 kts | 346° |
| 2026-04-29 12:28 | 38.54520 | 15.26286 | 27041 ft | 452 kts | 346° |
| 2026-04-29 12:28 | 38.57618 | 15.25527 | 27415 ft | 454 kts | 346° |
| 2026-04-29 12:28 | 38.60725 | 15.24766 | 27758 ft | 457 kts | 345° |
| 2026-04-29 12:29 | 38.63860 | 15.23999 | 28093 ft | 459 kts | 345° |
| 2026-04-29 12:29 | 38.67000 | 15.23228 | 28438 ft | 461 kts | 345° |
| 2026-04-29 12:29 | 38.70104 | 15.22464 | 28902 ft | 460 kts | 345° |
| 2026-04-29 12:29 | 38.73244 | 15.21695 | 29392 ft | 459 kts | 345° |
| 2026-04-29 12:30 | 38.76375 | 15.20927 | 29875 ft | 457 kts | 345° |
| 2026-04-29 12:30 | 38.79496 | 15.20160 | 30327 ft | 456 kts | 345° |
| 2026-04-29 12:30 | 38.82613 | 15.19394 | 30773 ft | 455 kts | 344° |
| 2026-04-29 12:30 | 38.85717 | 15.18628 | 31203 ft | 453 kts | 344° |
| 2026-04-29 12:31 | 38.88806 | 15.17865 | 31617 ft | 451 kts | 344° |
| 2026-04-29 12:31 | 38.91885 | 15.17103 | 32022 ft | 450 kts | 344° |
| 2026-04-29 12:31 | 38.94956 | 15.16343 | 32429 ft | 449 kts | 345° |
| 2026-04-29 12:31 | 38.97976 | 15.15597 | 32823 ft | 447 kts | 345° |
| 2026-04-29 12:32 | 39.01025 | 15.14846 | 33215 ft | 446 kts | 345° |
| 2026-04-29 12:32 | 39.04068 | 15.14096 | 33611 ft | 445 kts | 345° |
| 2026-04-29 12:32 | 39.07151 | 15.13593 | 33955 ft | 449 kts | 354° |
| 2026-04-29 12:32 | 39.10286 | 15.13724 | 34253 ft | 454 kts | 3° |
| 2026-04-29 12:33 | 39.13399 | 15.14488 | 34536 ft | 457 kts | 9° |
| 2026-04-29 12:33 | 39.16494 | 15.15435 | 34818 ft | 457 kts | 9° |
| 2026-04-29 12:33 | 39.19587 | 15.16377 | 35112 ft | 456 kts | 9° |
| 2026-04-29 12:33 | 39.22639 | 15.17300 | 35387 ft | 456 kts | 9° |
| 2026-04-29 12:34 | 39.25720 | 15.18231 | 35676 ft | 455 kts | 9° |
| 2026-04-29 12:34 | 39.28805 | 15.19164 | 35954 ft | 455 kts | 10° |
| 2026-04-29 12:34 | 39.31889 | 15.20098 | 36044 ft | 455 kts | 10° |
| 2026-04-29 12:35 | 39.38050 | 15.21966 | 36057 ft | 455 kts | 10° |
| 2026-04-29 12:35 | 39.44165 | 15.23828 | 36057 ft | 454 kts | 10° |
| 2026-04-29 12:36 | 39.50318 | 15.25706 | 36055 ft | 454 kts | 10° |
| 2026-04-29 12:36 | 39.56463 | 15.27577 | 36057 ft | 454 kts | 10° |
| 2026-04-29 12:37 | 39.62618 | 15.29461 | 36068 ft | 454 kts | 11° |
| 2026-04-29 12:37 | 39.68775 | 15.31315 | 36072 ft | 454 kts | 7° |
| 2026-04-29 12:38 | 39.74967 | 15.31597 | 36076 ft | 447 kts | 350° |
| 2026-04-29 12:38 | 39.81139 | 15.30627 | 36077 ft | 447 kts | 350° |
| 2026-04-29 12:39 | 39.87318 | 15.29667 | 36078 ft | 447 kts | 350° |
| 2026-04-29 12:39 | 39.93498 | 15.28712 | 36086 ft | 447 kts | 351° |
| 2026-04-29 12:40 | 39.99639 | 15.27762 | 36084 ft | 448 kts | 351° |
| 2026-04-29 12:40 | 40.05830 | 15.26811 | 36084 ft | 448 kts | 351° |
| 2026-04-29 12:41 | 40.12014 | 15.25858 | 36087 ft | 448 kts | 351° |
| 2026-04-29 12:41 | 40.18206 | 15.24898 | 36087 ft | 448 kts | 351° |
| 2026-04-29 12:42 | 40.24353 | 15.23941 | 36085 ft | 448 kts | 350° |
| 2026-04-29 12:42 | 40.30549 | 15.22970 | 36082 ft | 448 kts | 350° |
| 2026-04-29 12:43 | 40.36771 | 15.22465 | 36085 ft | 452 kts | 3° |
| 2026-04-29 12:43 | 40.39864 | 15.23248 | 36081 ft | 456 kts | 15° |
| 2026-04-29 12:43 | 40.42808 | 15.24825 | 36078 ft | 459 kts | 26° |
| 2026-04-29 12:43 | 40.45487 | 15.27129 | 36072 ft | 463 kts | 37° |
| 2026-04-29 12:44 | 40.47801 | 15.30084 | 36070 ft | 465 kts | 47° |
| 2026-04-29 12:44 | 40.51967 | 15.36533 | 36061 ft | 466 kts | 48° |
| 2026-04-29 12:45 | 40.56146 | 15.43063 | 36069 ft | 467 kts | 48° |
| 2026-04-29 12:45 | 40.60333 | 15.49604 | 36068 ft | 468 kts | 48° |
| 2026-04-29 12:46 | 40.64519 | 15.56160 | 36063 ft | 468 kts | 48° |
| 2026-04-29 12:46 | 40.68802 | 15.62508 | 36062 ft | 465 kts | 39° |
| 2026-04-29 12:47 | 40.74161 | 15.67134 | 35794 ft | 457 kts | 20° |
| 2026-04-29 12:47 | 40.77131 | 15.68549 | 35540 ft | 453 kts | 12° |
| 2026-04-29 12:47 | 40.80203 | 15.69451 | 35289 ft | 452 kts | 9° |
| 2026-04-29 12:47 | 40.83279 | 15.70309 | 35068 ft | 452 kts | 9° |
| 2026-04-29 12:48 | 40.86354 | 15.71182 | 35017 ft | 452 kts | 9° |
| 2026-04-29 12:48 | 40.92472 | 15.72930 | 35035 ft | 453 kts | 9° |
| 2026-04-29 12:49 | 40.98634 | 15.74690 | 35030 ft | 453 kts | 9° |
| 2026-04-29 12:49 | 41.04793 | 15.76451 | 35027 ft | 453 kts | 9° |
| 2026-04-29 12:50 | 41.10956 | 15.78208 | 35035 ft | 453 kts | 9° |
| 2026-04-29 12:50 | 41.17123 | 15.79960 | 35037 ft | 453 kts | 9° |
| 2026-04-29 12:51 | 41.23253 | 15.81713 | 35039 ft | 454 kts | 9° |
| 2026-04-29 12:51 | 41.29424 | 15.83496 | 35041 ft | 454 kts | 9° |
| 2026-04-29 12:52 | 41.35592 | 15.85285 | 35048 ft | 454 kts | 9° |
| 2026-04-29 12:52 | 41.41765 | 15.87064 | 35047 ft | 454 kts | 9° |
| 2026-04-29 12:53 | 41.47900 | 15.88823 | 35046 ft | 454 kts | 9° |
| 2026-04-29 12:53 | 41.54066 | 15.90604 | 35056 ft | 454 kts | 8° |
| 2026-04-29 12:54 | 41.60238 | 15.92395 | 35051 ft | 454 kts | 8° |
| 2026-04-29 12:54 | 41.66403 | 15.94194 | 35057 ft | 454 kts | 9° |
| 2026-04-29 12:55 | 41.72568 | 15.95995 | 35059 ft | 453 kts | 9° |
| 2026-04-29 12:55 | 41.78693 | 15.97781 | 35060 ft | 453 kts | 8° |
| 2026-04-29 12:56 | 41.84856 | 15.99570 | 35060 ft | 453 kts | 8° |
| 2026-04-29 12:56 | 41.91019 | 16.01373 | 35074 ft | 453 kts | 8° |
| 2026-04-29 12:57 | 41.97177 | 16.03179 | 35069 ft | 452 kts | 8° |
| 2026-04-29 12:57 | 42.03324 | 16.04991 | 35066 ft | 452 kts | 8° |
| 2026-04-29 12:58 | 42.09421 | 16.06792 | 35079 ft | 452 kts | 8° |
| 2026-04-29 12:58 | 42.15557 | 16.08601 | 35070 ft | 451 kts | 8° |
| 2026-04-29 12:59 | 42.21690 | 16.10420 | 35066 ft | 451 kts | 8° |
| 2026-04-29 12:59 | 42.27817 | 16.12240 | 35064 ft | 451 kts | 8° |
| 2026-04-29 13:00 | 42.33908 | 16.14043 | 35055 ft | 451 kts | 8° |
| 2026-04-29 13:00 | 42.40040 | 16.15862 | 35072 ft | 451 kts | 8° |
| 2026-04-29 13:01 | 42.46168 | 16.17694 | 35071 ft | 451 kts | 8° |
| 2026-04-29 13:01 | 42.52295 | 16.19531 | 35083 ft | 451 kts | 8° |
| 2026-04-29 13:02 | 42.58387 | 16.21350 | 35075 ft | 451 kts | 8° |
| 2026-04-29 13:02 | 42.64513 | 16.23186 | 35071 ft | 451 kts | 8° |
| 2026-04-29 13:03 | 42.70648 | 16.25030 | 35084 ft | 451 kts | 7° |
| 2026-04-29 13:03 | 42.76774 | 16.26876 | 35083 ft | 451 kts | 8° |
| 2026-04-29 13:04 | 42.82903 | 16.28729 | 35076 ft | 451 kts | 8° |
| 2026-04-29 13:04 | 42.89032 | 16.30581 | 35093 ft | 451 kts | 7° |
| 2026-04-29 13:05 | 42.95108 | 16.32416 | 35088 ft | 450 kts | 7° |
| 2026-04-29 13:05 | 43.01222 | 16.34263 | 35083 ft | 450 kts | 7° |
| 2026-04-29 13:06 | 43.07334 | 16.36118 | 35106 ft | 450 kts | 7° |
| 2026-04-29 13:06 | 43.13432 | 16.37990 | 35107 ft | 449 kts | 7° |
| 2026-04-29 13:07 | 43.19479 | 16.39848 | 35114 ft | 448 kts | 7° |
| 2026-04-29 13:07 | 43.25566 | 16.41710 | 35122 ft | 448 kts | 7° |
| 2026-04-29 13:08 | 43.31645 | 16.43572 | 35119 ft | 447 kts | 7° |
| 2026-04-29 13:08 | 43.37717 | 16.45432 | 35116 ft | 447 kts | 7° |
| 2026-04-29 13:09 | 43.43751 | 16.47296 | 35095 ft | 447 kts | 7° |
| 2026-04-29 13:09 | 43.49817 | 16.49172 | 35087 ft | 447 kts | 7° |
| 2026-04-29 13:10 | 43.55886 | 16.51047 | 35082 ft | 447 kts | 7° |
| 2026-04-29 13:10 | 43.61959 | 16.52919 | 35083 ft | 447 kts | 7° |
| 2026-04-29 13:11 | 43.68022 | 16.54806 | 35078 ft | 447 kts | 7° |
| 2026-04-29 13:11 | 43.74049 | 16.56689 | 35081 ft | 447 kts | 7° |
| 2026-04-29 13:12 | 43.80121 | 16.58580 | 35107 ft | 447 kts | 6° |
| 2026-04-29 13:12 | 43.86185 | 16.60484 | 35102 ft | 447 kts | 6° |
| 2026-04-29 13:13 | 43.92251 | 16.62382 | 35101 ft | 446 kts | 6° |
| 2026-04-29 13:13 | 43.98265 | 16.64261 | 35118 ft | 446 kts | 6° |
| 2026-04-29 13:14 | 44.04318 | 16.66166 | 35118 ft | 446 kts | 6° |
| 2026-04-29 13:14 | 44.10370 | 16.68070 | 35125 ft | 445 kts | 6° |
| 2026-04-29 13:15 | 44.16410 | 16.69975 | 35152 ft | 445 kts | 6° |
| 2026-04-29 13:15 | 44.22399 | 16.71880 | 35143 ft | 444 kts | 6° |
| 2026-04-29 13:16 | 44.28425 | 16.73796 | 35150 ft | 444 kts | 6° |
| 2026-04-29 13:16 | 44.34446 | 16.75700 | 35176 ft | 443 kts | 6° |
| 2026-04-29 13:17 | 44.40460 | 16.77603 | 35177 ft | 443 kts | 6° |
| 2026-04-29 13:17 | 44.46427 | 16.79508 | 35187 ft | 443 kts | 6° |
| 2026-04-29 13:18 | 44.52434 | 16.81437 | 35217 ft | 443 kts | 6° |
| 2026-04-29 13:18 | 44.58443 | 16.83365 | 35201 ft | 442 kts | 6° |
| 2026-04-29 13:19 | 44.64406 | 16.85281 | 35218 ft | 443 kts | 6° |
| 2026-04-29 13:19 | 44.70405 | 16.87219 | 35210 ft | 442 kts | 6° |
| 2026-04-29 13:20 | 44.76404 | 16.89150 | 35238 ft | 442 kts | 5° |
| 2026-04-29 13:20 | 44.82397 | 16.91076 | 35232 ft | 441 kts | 5° |
| 2026-04-29 13:21 | 44.88381 | 16.93015 | 35226 ft | 441 kts | 6° |
| 2026-04-29 13:21 | 44.94321 | 16.94949 | 35249 ft | 441 kts | 5° |
| 2026-04-29 13:22 | 45.00293 | 16.96895 | 35248 ft | 440 kts | 5° |
| 2026-04-29 13:22 | 45.06258 | 16.98837 | 35241 ft | 440 kts | 5° |
| 2026-04-29 13:23 | 45.12213 | 17.00785 | 35261 ft | 439 kts | 5° |
| 2026-04-29 13:23 | 45.18167 | 17.02732 | 35250 ft | 439 kts | 5° |
| 2026-04-29 13:24 | 45.24074 | 17.04669 | 35251 ft | 438 kts | 5° |
| 2026-04-29 13:24 | 45.30020 | 17.06625 | 35270 ft | 438 kts | 5° |
| 2026-04-29 13:25 | 45.35953 | 17.08581 | 35262 ft | 438 kts | 5° |
| 2026-04-29 13:25 | 45.44754 | 17.11490 | 35259 ft | 438 kts | 5° |
| 2026-04-29 13:26 | 45.50685 | 17.13456 | 35256 ft | 438 kts | 5° |
| 2026-04-29 13:26 | 45.56619 | 17.15422 | 35257 ft | 438 kts | 5° |
| 2026-04-29 13:27 | 45.62549 | 17.17391 | 35255 ft | 438 kts | 5° |
| 2026-04-29 13:27 | 45.68485 | 17.19373 | 35288 ft | 438 kts | 5° |
| 2026-04-29 13:28 | 45.74380 | 17.21349 | 35272 ft | 438 kts | 5° |
| 2026-04-29 13:28 | 45.80319 | 17.23340 | 35268 ft | 438 kts | 5° |
| 2026-04-29 13:29 | 45.86262 | 17.25331 | 35272 ft | 438 kts | 5° |
| 2026-04-29 13:29 | 45.92200 | 17.27322 | 35279 ft | 439 kts | 5° |
| 2026-04-29 13:30 | 45.98109 | 17.29312 | 35275 ft | 439 kts | 5° |
| 2026-04-29 13:30 | 46.04073 | 17.30685 | 35273 ft | 433 kts | 0° |
| 2026-04-29 13:31 | 46.10038 | 17.31896 | 35259 ft | 432 kts | 360° |
| 2026-04-29 13:31 | 46.15988 | 17.33104 | 35251 ft | 432 kts | 360° |
| 2026-04-29 13:32 | 46.21943 | 17.34321 | 35253 ft | 432 kts | 360° |
| 2026-04-29 13:32 | 46.27867 | 17.35536 | 35287 ft | 433 kts | 360° |
| 2026-04-29 13:33 | 46.33834 | 17.36766 | 35274 ft | 433 kts | 360° |
| 2026-04-29 13:33 | 46.39800 | 17.37999 | 35269 ft | 433 kts | 360° |
| 2026-04-29 13:34 | 46.45770 | 17.39233 | 35269 ft | 433 kts | 360° |
| 2026-04-29 13:34 | 46.51737 | 17.40468 | 35283 ft | 433 kts | 360° |
| 2026-04-29 13:35 | 46.57664 | 17.41692 | 35273 ft | 433 kts | 360° |
| 2026-04-29 13:35 | 46.63625 | 17.42935 | 35268 ft | 433 kts | 360° |
| 2026-04-29 13:36 | 46.69595 | 17.44181 | 35268 ft | 433 kts | 360° |
| 2026-04-29 13:36 | 46.75565 | 17.45420 | 35258 ft | 433 kts | 360° |
| 2026-04-29 13:37 | 46.81497 | 17.46667 | 35256 ft | 434 kts | 360° |
| 2026-04-29 13:37 | 46.87479 | 17.47924 | 35256 ft | 434 kts | 360° |
| 2026-04-29 13:38 | 46.93469 | 17.49180 | 35272 ft | 435 kts | 0° |
| 2026-04-29 13:38 | 46.99464 | 17.50440 | 35269 ft | 435 kts | 0° |
| 2026-04-29 13:39 | 47.05419 | 17.51705 | 35253 ft | 436 kts | 0° |
| 2026-04-29 13:39 | 47.11420 | 17.52983 | 35265 ft | 436 kts | 0° |
| 2026-04-29 13:40 | 47.17418 | 17.54253 | 35254 ft | 435 kts | 0° |
| 2026-04-29 13:40 | 47.23410 | 17.55522 | 35241 ft | 435 kts | 0° |
| 2026-04-29 13:41 | 47.29408 | 17.56804 | 35268 ft | 435 kts | 1° |
| 2026-04-29 13:41 | 47.35363 | 17.58072 | 35253 ft | 435 kts | 1° |
| 2026-04-29 13:42 | 47.41361 | 17.59354 | 35243 ft | 436 kts | 1° |
| 2026-04-29 13:42 | 47.47364 | 17.60649 | 35240 ft | 436 kts | 1° |
| 2026-04-29 13:43 | 47.53366 | 17.61945 | 35241 ft | 436 kts | 1° |
| 2026-04-29 13:43 | 47.59334 | 17.63228 | 35238 ft | 436 kts | 1° |
| 2026-04-29 13:44 | 47.65337 | 17.64521 | 35233 ft | 436 kts | 1° |
| 2026-04-29 13:44 | 47.71343 | 17.65816 | 35262 ft | 436 kts | 1° |
| 2026-04-29 13:45 | 47.76333 | 17.66897 | 35253 ft | 436 kts | 1° |
| 2026-04-29 13:45 | 47.82333 | 17.68213 | 35250 ft | 436 kts | 1° |
| 2026-04-29 13:46 | 47.89305 | 17.69738 | 35243 ft | 436 kts | 1° |
| 2026-04-29 13:46 | 47.94292 | 17.70826 | 35250 ft | 435 kts | 1° |
| 2026-04-29 13:47 | 48.00263 | 17.72137 | 35228 ft | 433 kts | 1° |
| 2026-04-29 13:47 | 48.07195 | 17.73663 | 35234 ft | 434 kts | 1° |
| 2026-04-29 13:48 | 48.12200 | 17.74764 | 35219 ft | 434 kts | 1° |
| 2026-04-29 13:48 | 48.18130 | 17.76066 | 35246 ft | 434 kts | 2° |
| 2026-04-29 13:49 | 48.24104 | 17.77380 | 35245 ft | 434 kts | 2° |
| 2026-04-29 13:49 | 48.31056 | 17.78926 | 35243 ft | 434 kts | 2° |
| 2026-04-29 13:50 | 48.36063 | 17.80042 | 35277 ft | 434 kts | 2° |
| 2026-04-29 13:50 | 48.41999 | 17.81366 | 35270 ft | 434 kts | 2° |
| 2026-04-29 13:51 | 48.47981 | 17.82699 | 35264 ft | 434 kts | 2° |
| 2026-04-29 13:51 | 48.53953 | 17.84036 | 35270 ft | 434 kts | 2° |
| 2026-04-29 13:52 | 48.59929 | 17.85370 | 35288 ft | 434 kts | 2° |
| 2026-04-29 13:52 | 48.65856 | 17.86698 | 35278 ft | 433 kts | 2° |
| 2026-04-29 13:53 | 48.71815 | 17.88050 | 35273 ft | 433 kts | 2° |
| 2026-04-29 13:53 | 48.77773 | 17.89407 | 35272 ft | 433 kts | 2° |
| 2026-04-29 13:54 | 48.83719 | 17.90761 | 35292 ft | 432 kts | 2° |
| 2026-04-29 13:54 | 48.89625 | 17.92097 | 35289 ft | 431 kts | 2° |
| 2026-04-29 13:55 | 48.95560 | 17.93444 | 35298 ft | 431 kts | 2° |
| 2026-04-29 13:55 | 49.01488 | 17.94804 | 35334 ft | 431 kts | 3° |
| 2026-04-29 13:56 | 49.07393 | 17.96205 | 35301 ft | 428 kts | 3° |
| 2026-04-29 13:56 | 49.13274 | 17.97667 | 35303 ft | 428 kts | 4° |
| 2026-04-29 13:57 | 49.19121 | 17.99127 | 35044 ft | 428 kts | 4° |
| 2026-04-29 13:57 | 49.22058 | 17.99857 | 34499 ft | 429 kts | 3° |
| 2026-04-29 13:57 | 49.25015 | 18.00585 | 33668 ft | 433 kts | 4° |
| 2026-04-29 13:58 | 49.27996 | 18.01320 | 32869 ft | 435 kts | 3° |
| 2026-04-29 13:58 | 49.30991 | 18.02062 | 32068 ft | 436 kts | 3° |
| 2026-04-29 13:58 | 49.33990 | 18.02806 | 31257 ft | 438 kts | 3° |
| 2026-04-29 13:58 | 49.37011 | 18.03557 | 30346 ft | 442 kts | 2° |
| 2026-04-29 13:59 | 49.40014 | 18.04307 | 29343 ft | 444 kts | 2° |
| 2026-04-29 13:59 | 49.43063 | 18.05070 | 28431 ft | 444 kts | 3° |
| 2026-04-29 13:59 | 49.46111 | 18.05834 | 27520 ft | 444 kts | 3° |
| 2026-04-29 13:59 | 49.49163 | 18.06600 | 26703 ft | 442 kts | 3° |
| 2026-04-29 14:00 | 49.52167 | 18.07359 | 26153 ft | 435 kts | 4° |
| 2026-04-29 14:00 | 49.55133 | 18.08108 | 25523 ft | 430 kts | 4° |
| 2026-04-29 14:00 | 49.58069 | 18.08847 | 24895 ft | 424 kts | 4° |
| 2026-04-29 14:00 | 49.60919 | 18.09563 | 24287 ft | 418 kts | 4° |
| 2026-04-29 14:01 | 49.63769 | 18.10275 | 23645 ft | 413 kts | 4° |
| 2026-04-29 14:01 | 49.66584 | 18.10980 | 23014 ft | 406 kts | 4° |
| 2026-04-29 14:01 | 49.69346 | 18.11677 | 22428 ft | 398 kts | 4° |
| 2026-04-29 14:01 | 49.72055 | 18.12366 | 21850 ft | 391 kts | 4° |
| 2026-04-29 14:02 | 49.74722 | 18.13046 | 21284 ft | 385 kts | 4° |
| 2026-04-29 14:02 | 49.77339 | 18.13713 | 20743 ft | 378 kts | 4° |
| 2026-04-29 14:02 | 49.79919 | 18.14367 | 20209 ft | 373 kts | 4° |
| 2026-04-29 14:02 | 49.82434 | 18.15000 | 19711 ft | 369 kts | 4° |
| 2026-04-29 14:03 | 49.84954 | 18.15635 | 19213 ft | 365 kts | 4° |
| 2026-04-29 14:03 | 49.87450 | 18.16265 | 18731 ft | 362 kts | 4° |
| 2026-04-29 14:03 | 49.89920 | 18.16891 | 18238 ft | 358 kts | 4° |
| 2026-04-29 14:03 | 49.92358 | 18.17511 | 17746 ft | 353 kts | 4° |
| 2026-04-29 14:04 | 49.94761 | 18.18124 | 17305 ft | 347 kts | 4° |
| 2026-04-29 14:04 | 49.97106 | 18.18922 | 16846 ft | 345 kts | 13° |
| 2026-04-29 14:04 | 49.99305 | 18.20425 | 16397 ft | 347 kts | 24° |
| 2026-04-29 14:04 | 50.01248 | 18.22582 | 15877 ft | 351 kts | 36° |
| 2026-04-29 14:05 | 50.02904 | 18.25398 | 15342 ft | 356 kts | 48° |
| 2026-04-29 14:05 | 50.04308 | 18.28567 | 14780 ft | 355 kts | 50° |
| 2026-04-29 14:05 | 50.05701 | 18.31730 | 14224 ft | 354 kts | 50° |
| 2026-04-29 14:05 | 50.07090 | 18.34878 | 13611 ft | 352 kts | 51° |
| 2026-04-29 14:06 | 50.08469 | 18.38002 | 13037 ft | 349 kts | 51° |
| 2026-04-29 14:06 | 50.09838 | 18.41100 | 12459 ft | 346 kts | 51° |
| 2026-04-29 14:06 | 50.11205 | 18.44156 | 11873 ft | 342 kts | 49° |
| 2026-04-29 14:06 | 50.12793 | 18.46787 | 11325 ft | 334 kts | 37° |
| 2026-04-29 14:07 | 50.14635 | 18.48771 | 11131 ft | 310 kts | 26° |
| 2026-04-29 14:07 | 50.16535 | 18.50075 | 11001 ft | 287 kts | 16° |
| 2026-04-29 14:07 | 50.18386 | 18.50932 | 10752 ft | 271 kts | 14° |
| 2026-04-29 14:07 | 50.20165 | 18.51752 | 10476 ft | 265 kts | 14° |
| 2026-04-29 14:08 | 50.21929 | 18.52566 | 10263 ft | 263 kts | 15° |
| 2026-04-29 14:08 | 50.23683 | 18.53376 | 10127 ft | 263 kts | 14° |
| 2026-04-29 14:08 | 50.25415 | 18.54172 | 9989 ft | 263 kts | 15° |
| 2026-04-29 14:08 | 50.27169 | 18.54978 | 9854 ft | 262 kts | 15° |
| 2026-04-29 14:09 | 50.28919 | 18.55781 | 9704 ft | 261 kts | 15° |
| 2026-04-29 14:09 | 50.30661 | 18.56581 | 9577 ft | 261 kts | 15° |
| 2026-04-29 14:09 | 50.32405 | 18.57385 | 9436 ft | 262 kts | 16° |
| 2026-04-29 14:09 | 50.34148 | 18.58189 | 9129 ft | 260 kts | 16° |
| 2026-04-29 14:10 | 50.35878 | 18.58990 | 8788 ft | 258 kts | 17° |
| 2026-04-29 14:10 | 50.37594 | 18.59785 | 8442 ft | 256 kts | 17° |
| 2026-04-29 14:10 | 50.39303 | 18.60577 | 8027 ft | 258 kts | 17° |
| 2026-04-29 14:10 | 50.41016 | 18.61372 | 7486 ft | 260 kts | 17° |
| 2026-04-29 14:11 | 50.42735 | 18.62168 | 7045 ft | 253 kts | 17° |
| 2026-04-29 14:11 | 50.44394 | 18.62932 | 6696 ft | 244 kts | 17° |
| 2026-04-29 14:11 | 50.45945 | 18.63828 | 6358 ft | 233 kts | 32° |
| 2026-04-29 14:11 | 50.47074 | 18.65515 | 6059 ft | 221 kts | 55° |
| 2026-04-29 14:12 | 50.47600 | 18.67721 | 5745 ft | 215 kts | 79° |
| 2026-04-29 14:12 | 50.47627 | 18.70031 | 5453 ft | 208 kts | 86° |
| 2026-04-29 14:12 | 50.47624 | 18.72280 | 5167 ft | 204 kts | 86° |
| 2026-04-29 14:12 | 50.47624 | 18.74462 | 4887 ft | 202 kts | 85° |
| 2026-04-29 14:13 | 50.47624 | 18.76658 | 4611 ft | 200 kts | 85° |
| 2026-04-29 14:13 | 50.47625 | 18.78839 | 4338 ft | 199 kts | 85° |
| 2026-04-29 14:13 | 50.47626 | 18.81024 | 4076 ft | 200 kts | 85° |
| 2026-04-29 14:13 | 50.47626 | 18.83160 | 3834 ft | 190 kts | 85° |
| 2026-04-29 14:14 | 50.47624 | 18.85175 | 3576 ft | 179 kts | 84° |
| 2026-04-29 14:14 | 50.47620 | 18.87084 | 3328 ft | 170 kts | 85° |
| 2026-04-29 14:14 | 50.47618 | 18.88898 | 3094 ft | 163 kts | 85° |
| 2026-04-29 14:14 | 50.47617 | 18.90649 | 2893 ft | 157 kts | 84° |
| 2026-04-29 14:15 | 50.47615 | 18.92305 | 2698 ft | 149 kts | 83° |
| 2026-04-29 14:15 | 50.47613 | 18.93887 | 2500 ft | 142 kts | 83° |
| 2026-04-29 14:15 | 50.47612 | 18.95442 | 2308 ft | 142 kts | 84° |
| 2026-04-29 14:15 | 50.47612 | 18.96985 | 2111 ft | 139 kts | 84° |
| 2026-04-29 14:16 | 50.47611 | 18.98504 | 1936 ft | 140 kts | 84° |
| 2026-04-29 14:16 | 50.47607 | 19.00031 | 1748 ft | 140 kts | 83° |
| 2026-04-29 14:16 | 50.47610 | 19.01573 | 1575 ft | 141 kts | 83° |
| 2026-04-29 14:16 | 50.47610 | 19.03095 | 1421 ft | 142 kts | 83° |
| 2026-04-29 14:17 | 50.47602 | 19.04662 | 1207 ft | 144 kts | 82° |
| 2026-04-29 14:17 | 50.47602 | 19.06221 | 1014 ft | 141 kts | 85° |
| 2026-04-29 14:17 | 50.47606 | 19.07561 | 1001 ft | 99 kts | 88° |
| 2026-04-29 14:17 | 50.47599 | 19.08360 | 997 ft | 53 kts | 90° |
| 2026-04-29 14:18 | 50.47598 | 19.08815 | 1000 ft | 34 kts | 90° |
| 2026-04-29 14:18 | 50.47597 | 19.09178 | 1002 ft | 30 kts | 91° |
| 2026-04-29 14:18 | 50.47561 | 19.09381 | 1003 ft | 16 kts | 160° |
| 2026-04-29 14:18 | 50.47448 | 19.09371 | 999 ft | 16 kts | 213° |
| 2026-04-29 14:19 | 50.47421 | 19.09203 | 1002 ft | 17 kts | 269° |
| 2026-04-29 14:19 | 50.47422 | 19.09004 | 1003 ft | 19 kts | 270° |
| 2026-04-29 14:19 | 50.47423 | 19.08792 | 1000 ft | 20 kts | 270° |
| 2026-04-29 14:19 | 50.47423 | 19.08563 | 1003 ft | 22 kts | 270° |
| 2026-04-29 14:20 | 50.47424 | 19.08319 | 1002 ft | 23 kts | 270° |
| 2026-04-29 14:20 | 50.47425 | 19.08063 | 1002 ft | 24 kts | 270° |
| 2026-04-29 14:20 | 50.47425 | 19.07793 | 1001 ft | 25 kts | 271° |
| 2026-04-29 14:20 | 50.47426 | 19.07537 | 999 ft | 20 kts | 270° |
| 2026-04-29 14:21 | 50.47350 | 19.07442 | 1001 ft | 16 kts | 182° |
| 2026-04-29 14:21 | 50.47257 | 19.07445 | 1001 ft | 11 kts | 167° |
| 2026-04-29 14:21 | 50.47234 | 19.07553 | 1003 ft | 12 kts | 90° |
| 2026-04-29 14:21 | 50.47230 | 19.07678 | 1002 ft | 8 kts | 115° |
| 2026-04-29 14:22 | 50.47179 | 19.07695 | 998 ft | 9 kts | 180° |
| 2026-04-29 14:22 | 50.47148 | 19.07695 | 1000 ft | 0 kts | 180° |
| 2026-04-29 14:22 | 50.47139 | 19.07695 | 1000 ft | 0 kts | 180° |
| 2026-04-29 14:22 | 50.47140 | 19.07695 | 1001 ft | 1 kts | 180° |
| 2026-04-29 14:23 | 50.47150 | 19.07695 | 1000 ft | 1 kts | 180° |
| 2026-04-29 14:23 | 50.47149 | 19.07695 | 1000 ft | 0 kts | 180° |